Flight Track Log - Related Links

Times and Time Zones

All times are in EDT time to prevent confusion due to time zone crossing. See the SWA378 flight status page for this flight to view local times or setup timezone preferences in your user account.

Time Position Orientation Groundspeed Altitude Reporting Facility
EDT Latitude Longitude Course Direction KTS MPH feet Rate Location/Type
Fri 06:35:07 PM 33.6333 -84.4000 90° East 149 171 2,500  Level Atlanta TRACON
Fri 06:36:07 PM 33.6333 -84.3333 90° East 210 242 4,300 2,800 Climbing Atlanta TRACON
Fri 06:37:07 PM 33.6333 -84.2500 90° East 244 281 8,100 3,370 Climbing Atlanta TRACON
Fri 06:38:49 PM 33.6356 -84.0911 89° East 290 334 13,400 2,778 Climbing Atlanta Center
Fri 06:39:49 PM 33.6419 -83.9764 86° East 324 373 15,600 2,650 Climbing Atlanta Center
Fri 06:40:49 PM 33.6481 -83.8467 87° East 373 429 18,700 2,900 Climbing Atlanta Center
Fri 06:41:49 PM 33.6561 -83.7169 86° East 386 444 21,400 2,500 Climbing Atlanta Center
Fri 06:42:49 PM 33.6847 -83.5794 76° East 405 466 23,700 2,150 Climbing Atlanta Center
Fri 06:43:49 PM 33.7303 -83.4644 65° Northeast 421 484 25,700 1,900 Climbing Atlanta Center
Fri 06:44:49 PM 33.7881 -83.3289 63° Northeast 434 499 27,500 1,800 Climbing Atlanta Center
Fri 06:46:49 PM 33.8967 -83.0478 65° Northeast 460 529 31,100 1,867 Climbing Atlanta Center
Fri 06:47:49 PM 33.9561 -82.9094 63° Northeast 468 539 33,100 1,850 Climbing Atlanta Center
Fri 06:48:49 PM 34.0131 -82.7683 64° Northeast 468 539 34,800 1,600 Climbing Atlanta Center
Fri 06:49:49 PM 34.0700 -82.6244 64° Northeast 462 532 36,300 1,500 Climbing Atlanta Center
Fri 06:50:49 PM 34.1286 -82.4728 65° Northeast 462 532 37,800 850 Climbing Atlanta Center
Fri 06:51:49 PM 34.1853 -82.3311 62° Northeast 457 526 38,000 100 Climbing Atlanta Center
Fri 06:52:00 PM 34.1696 -82.3339 62° Northeast  Level FlightAware Approximate
Fri 06:52:49 PM 34.2375 -82.1894 66° East 457 526 38,000  Level Atlanta Center
Fri 06:53:49 PM 34.3019 -82.0522 60° Northeast 457 526 38,600 500 Climbing Atlanta Center
Fri 06:54:49 PM 34.3686 -81.9197 59° Northeast 462 532 39,000 200 Climbing Atlanta Center
Fri 06:55:49 PM 34.4372 -81.7872 58° Northeast 462 532 39,000  Level Atlanta Center
Fri 06:56:49 PM 34.5014 -81.6517 60° Northeast 462 532 39,000  Level Atlanta Center
Fri 06:57:49 PM 34.5697 -81.5186 58° Northeast 462 532 39,000  Level Atlanta Center
Fri 06:58:49 PM 34.6339 -81.3856 60° Northeast 462 532 39,000  Level Atlanta Center
Fri 06:59:49 PM 34.6978 -81.2547 59° Northeast 452 520 39,000  Level Atlanta Center
Fri 07:00:49 PM 34.7633 -81.1208 59° Northeast 458 527 39,000  Level Atlanta Center
Fri 07:01:49 PM 34.8292 -80.9922 58° Northeast 451 519 39,000  Level Atlanta Center
Fri 07:02:49 PM 34.8944 -80.8506 61° Northeast 457 526 39,000  Level Atlanta Center
Fri 07:03:49 PM 34.9597 -80.7186 59° Northeast 457 526 39,000  Level Atlanta Center
Fri 07:06:13 PM 35.1164 -80.3961 59° Northeast 457 526 39,000  Level Washington Center
Fri 07:07:11 PM 35.1825 -80.2578 60° Northeast 457 526 39,000  Level Washington Center
Fri 07:08:12 PM 35.2439 -80.1239 61° Northeast 452 520 39,000  Level Washington Center
Fri 07:09:12 PM 35.2950 -79.9869 65° Northeast 447 514 39,000  Level Washington Center
Fri 07:10:13 PM 35.3397 -79.8417 69° East 447 514 39,000 -101 Level Washington Center
Fri 07:11:11 PM 35.3847 -79.6936 70° East 447 514 38,800 -610 Descending Washington Center
Fri 07:12:11 PM 35.4294 -79.5456 70° East 452 520 37,800 -992 Descending Washington Center
Fri 07:13:12 PM 35.4803 -79.3925 68° East 465 535 36,800 -984 Descending Washington Center
Fri 07:14:13 PM 35.5244 -79.2442 70° East 470 541 35,800 -900 Descending Washington Center
Fri 07:15:12 PM 35.5661 -79.1056 70° East 470 541 35,000 -908 Descending Washington Center
Fri 07:16:12 PM 35.6147 -78.9442 70° East 460 529 34,000 -992 Descending Washington Center
Fri 07:17:13 PM 35.6606 -78.7928 70° East 460 529 33,000 -1,000 Descending Washington Center
Fri 07:18:12 PM 35.7083 -78.6411 69° East 465 535 32,000 -950 Descending Washington Center
Fri 07:19:13 PM 35.7517 -78.4867 71° East 465 535 31,100 -958 Descending Washington Center
Fri 07:20:11 PM 35.7950 -78.3372 70° East 465 535 30,100 -1,017 Descending Washington Center
Fri 07:21:11 PM 35.8381 -78.1875 70° East 465 535 29,100 -942 Descending Washington Center
Fri 07:22:12 PM 35.8761 -78.0606 70° East 452 520 28,200 -942 Descending Washington Center
Fri 07:23:12 PM 35.9142 -77.9233 71° East 441 507 27,200 -992 Descending Washington Center
Fri 07:24:13 PM 35.9567 -77.7858 69° East 430 495 26,200 -1,537 Descending Washington Center
Fri 07:25:13 PM 36.0006 -77.6561 67° East 420 483 24,100 -2,237 Descending Washington Center
Fri 07:26:11 PM 36.0567 -77.5394 59° Northeast 402 463 21,800 -1,563 Descending Washington Center
Fri 07:27:12 PM 36.1108 -77.4253 60° Northeast 388 447 21,000 -393 Descending Washington Center
Fri 07:28:13 PM 36.1644 -77.3158 59° Northeast 370 426 21,000  Level Washington Center
Fri 07:29:13 PM 36.2142 -77.2061 61° Northeast 364 419 21,000 -864 Level Washington Center
Fri 07:30:11 PM 36.2675 -77.0992 58° Northeast 364 419 19,300 -1,890 Descending Washington Center
Fri 07:30:26 PM 36.2806 -77.0708 60° Northeast 359 413 18,700 -1,600 Descending Washington Center
Fri 07:31:11 PM 36.3147 -76.9942 61° Northeast 353 406 17,700 -1,600 Descending Washington Center
Fri 07:31:26 PM 36.3297 -76.9661 56° Northeast 343 395 17,100 -2,164 Descending Washington Center
Fri 07:32:12 PM 36.3619 -76.8919 62° Northeast 348 400 15,500 -2,419 Descending Washington Center
Fri 07:32:28 PM 36.3831 -76.8692 41° Northeast 346 398 14,600 -3,049 Descending Washington Center
Fri 07:33:13 PM 36.4275 -76.8000 51° Northeast 348 400 12,400 -3,100 Descending Washington Center
Fri 07:33:28 PM 36.4464 -76.7772 44° Northeast 356 410 11,500 -2,316 Descending Washington Center
Fri 07:34:10 PM 36.4908 -76.7081 51° Northeast 348 400 10,200 -1,377 Descending Washington Center
Fri 07:34:29 PM 36.5142 -76.6825 41° Northeast 318 366 10,100 -492 Descending Washington Center
Fri 07:35:11 PM 36.5458 -76.6314 52° Northeast 328 377 9,700 -1,400 Descending Washington Center
Fri 07:35:29 PM 36.5628 -76.6056 51° Northeast 264 304 8,700 -2,262 Descending Washington Center
Fri 07:36:12 PM 36.5922 -76.5619 50° Northeast 290 334 7,400 -2,164 Descending Washington Center
Fri 07:36:30 PM 36.6114 -76.5364 47° Northeast 268 308 6,500 -2,000 Descending Washington Center
Fri 07:37:12 PM 36.6408 -76.4953 48° Northeast 264 304 5,400 -1,900 Descending Washington Center
Fri 07:37:30 PM 36.6578 -76.4697 50° Northeast 256 295 4,600 -1,700 Descending Washington Center
Fri 07:38:12 PM 36.6853 -76.4286 50° Northeast 259 298 3,700 -826 Descending Washington Center
Fri 07:39:19 PM 36.7336 -76.3592 49° Northeast 220 253 3,100 -605 Descending Washington Center
Fri 07:40:11 PM 36.7736 -76.3153 41° Northeast 213 245 2,500 -555 Descending Washington Center
Fri 07:41:18 PM 36.8197 -76.2769 34° Northeast 175 201 2,000 -656 Descending Washington Center
Fri 07:42:19 PM 36.8531 -76.2461 37° Northeast 136 157 1,100 -885 Descending Washington Center

Login

Don't have an account? Register now (free) for customized features, flight alerts, and more!